Time;durP1;ratioP1;P1;durP2;ratioP2;P2;SDS_P1;SDS_P2;PMS_P1;PMS_P2;Temp;Humidity;BMP_temperature;BMP_pressure;BME280_temperature;BME280_humidity;BME280_pressure;Samples;Min_cycle;Max_cycle;Signal;HPM_P1;HPM_P2
2022/03/01 00:00:09;;;;;;;16.90;9.40;;;5.40;89.40;;;;;;1905273;75;21016;-54
2022/03/01 00:02:43;;;;;;;15.80;9.85;;;5.40;88.90;;;;;;1905477;74;21101;-53
2022/03/01 00:05:13;;;;;;;14.15;8.53;;;5.30;89.60;;;;;;1905257;75;21144;-54
2022/03/01 00:07:42;;;;;;;18.52;9.23;;;5.30;89.40;;;;;;1905217;75;21015;-53
2022/03/01 00:10:12;;;;;;;16.90;10.50;;;5.30;89.10;;;;;;1905289;75;21089;-54
2022/03/01 00:12:41;;;;;;;19.57;11.93;;;5.20;88.80;;;;;;1905221;75;21023;-54
2022/03/01 00:15:11;;;;;;;22.55;12.43;;;5.20;89.20;;;;;;1905379;74;21103;-54
2022/03/01 00:17:41;;;;;;;17.40;10.58;;;5.20;89.20;;;;;;1905367;75;21032;-55
2022/03/01 00:20:11;;;;;;;20.15;10.72;;;5.20;89.40;;;;;;1905264;74;21012;-55
2022/03/01 00:22:40;;;;;;;24.77;12.25;;;5.30;89.90;;;;;;1905353;75;21023;-54
2022/03/01 00:25:10;;;;;;;20.25;11.18;;;5.30;89.20;;;;;;1905333;74;21023;-54
2022/03/01 00:27:39;;;;;;;19.87;10.75;;;5.20;89.00;;;;;;1905359;74;21019;-54
2022/03/01 00:30:10;;;;;;;15.63;8.05;;;5.20;88.70;;;;;;1905493;75;21008;-54
2022/03/01 00:32:39;;;;;;;17.57;10.38;;;5.20;89.00;;;;;;1905363;75;21085;-54
2022/03/01 00:35:09;;;;;;;19.55;10.70;;;5.10;88.80;;;;;;1905486;75;21134;-55
2022/03/01 00:37:38;;;;;;;22.30;12.25;;;5.10;89.00;;;;;;1905331;75;21015;-54
2022/03/01 00:40:08;;;;;;;20.90;11.83;;;5.10;89.00;;;;;;1905375;75;21091;-53
2022/03/01 00:42:38;;;;;;;19.50;10.28;;;5.10;89.00;;;;;;1905449;74;21027;-54
2022/03/01 00:45:08;;;;;;;20.43;11.83;;;5.10;88.90;;;;;;1905374;74;21023;-54
2022/03/01 00:47:37;;;;;;;19.52;9.68;;;5.10;89.10;;;;;;1905214;74;21110;-55
2022/03/01 00:50:08;;;;;;;18.85;11.08;;;5.10;89.00;;;;;;1905360;75;21051;-53
2022/03/01 00:52:37;;;;;;;22.17;11.57;;;5.10;89.00;;;;;;1905221;75;21101;-53
2022/03/01 00:55:07;;;;;;;13.18;8.20;;;5.10;89.00;;;;;;1905269;75;21023;-54
2022/03/01 00:57:37;;;;;;;14.05;8.95;;;5.10;89.10;;;;;;1905336;74;21129;-54
2022/03/01 01:00:12;;;;;;;15.75;8.53;;;5.00;88.80;;;;;;1905231;74;21071;-53
2022/03/01 01:02:41;;;;;;;;;;;5.00;89.00;;;;;;1908097;75;21016;-54
2022/03/01 01:05:10;;;;;;;14.60;8.85;;;5.00;89.30;;;;;;1905360;74;20094;-54
2022/03/01 01:07:40;;;;;;;11.50;7.47;;;5.00;89.00;;;;;;1905190;74;21016;-54
2022/03/01 01:10:10;;;;;;;12.13;7.62;;;5.00;88.70;;;;;;1905212;75;21097;-54
2022/03/01 01:12:41;;;;;;;18.57;10.98;;;5.00;89.40;;;;;;1905287;75;21098;-53
2022/03/01 01:15:12;;;;;;;20.12;10.63;;;5.00;89.00;;;;;;1905269;75;21016;-54
2022/03/01 01:17:41;;;;;;;26.12;13.32;;;5.00;89.20;;;;;;1905219;75;21011;-55
2022/03/01 01:20:11;;;;;;;19.35;12.18;;;5.10;89.40;;;;;;1905259;75;21103;-54
2022/03/01 01:22:41;;;;;;;18.25;11.05;;;5.10;89.20;;;;;;1905217;75;21017;-53
2022/03/01 01:25:13;;;;;;;17.42;9.78;;;5.10;88.80;;;;;;1905332;74;21085;-54
2022/03/01 01:27:44;;;;;;;20.95;12.45;;;5.10;88.70;;;;;;1905239;74;21081;-54
2022/03/01 01:30:16;;;;;;;22.32;12.53;;;5.10;88.80;;;;;;1905352;75;21035;-54
2022/03/01 01:32:48;;;;;;;20.85;11.05;;;5.10;88.90;;;;;;1905203;74;21508;-53
2022/03/01 01:35:17;;;;;;;19.80;11.25;;;5.10;88.70;;;;;;1905221;75;21039;-54
2022/03/01 01:37:47;;;;;;;21.42;10.58;;;5.10;89.00;;;;;;1905223;75;21019;-54
2022/03/01 01:40:19;;;;;;;15.55;8.90;;;5.10;88.80;;;;;;1905328;75;21058;-54
2022/03/01 01:42:49;;;;;;;16.15;9.20;;;5.10;89.40;;;;;;1905414;75;21012;-54
2022/03/01 01:45:18;;;;;;;21.23;11.68;;;5.10;88.70;;;;;;1905242;75;20995;-54
2022/03/01 01:47:49;;;;;;;19.57;11.38;;;5.10;88.80;;;;;;1905200;74;21035;-54
2022/03/01 01:50:19;;;;;;;20.08;11.43;;;5.10;88.90;;;;;;1905212;75;21051;-54
2022/03/01 01:52:50;;;;;;;23.70;12.45;;;5.10;88.80;;;;;;1905259;75;21081;-53
2022/03/01 01:55:20;;;;;;;17.55;9.20;;;5.10;89.10;;;;;;1905225;75;21019;-54
2022/03/01 01:57:49;;;;;;;21.35;11.43;;;5.10;88.80;;;;;;1916153;74;21058;-55
2022/03/01 02:00:19;;;;;;;25.00;12.05;;;5.10;89.10;;;;;;1924561;74;21022;-53
2022/03/01 02:02:49;;;;;;;21.17;11.43;;;5.10;89.20;;;;;;1924551;74;21076;-54
2022/03/01 02:05:18;;;;;;;20.82;11.18;;;5.10;89.60;;;;;;1924607;74;21018;-53
2022/03/01 02:07:50;;;;;;;23.05;12.98;;;5.20;89.60;;;;;;1924575;74;21128;-54
2022/03/01 02:10:19;;;;;;;23.32;12.05;;;5.30;89.60;;;;;;1924645;74;21026;-54
2022/03/01 02:12:48;;;;;;;21.87;11.75;;;5.30;89.70;;;;;;1924601;74;20999;-54
2022/03/01 02:15:18;;;;;;;21.52;12.82;;;5.40;89.80;;;;;;1924571;74;21156;-54
2022/03/01 02:17:47;;;;;;;21.42;12.73;;;5.40;89.00;;;;;;1924553;74;21017;-55
2022/03/01 02:20:18;;;;;;;24.23;12.73;;;5.40;89.10;;;;;;1924548;74;21065;-54
2022/03/01 02:22:49;;;;;;;24.45;12.20;;;5.40;89.40;;;;;;1924586;74;21058;-54
2022/03/01 02:25:18;;;;;;;22.22;11.57;;;5.50;89.70;;;;;;1924446;74;21542;-53
2022/03/01 02:27:48;;;;;;;21.60;11.22;;;5.50;89.70;;;;;;1924757;74;21019;-54
2022/03/01 02:30:17;;;;;;;20.25;11.78;;;5.60;89.60;;;;;;1924581;74;21022;-53
2022/03/01 02:32:48;;;;;;;26.70;13.08;;;5.70;89.60;;;;;;1924409;74;21046;-54
2022/03/01 02:35:18;;;;;;;22.10;11.85;;;5.60;89.30;;;;;;1924615;74;21019;-54
2022/03/01 02:37:47;;;;;;;21.02;11.05;;;5.60;89.10;;;;;;1924550;74;21034;-54
2022/03/01 02:40:17;;;;;;;20.82;12.90;;;5.60;89.40;;;;;;1924574;74;20998;-53
2022/03/01 02:42:48;;;;;;;19.70;11.35;;;5.50;89.40;;;;;;1924573;74;21167;-53
2022/03/01 02:45:19;;;;;;;22.87;12.40;;;5.50;89.60;;;;;;1924687;74;21102;-54
2022/03/01 02:47:48;;;;;;;22.80;12.30;;;5.40;89.50;;;;;;1924588;74;21023;-53
2022/03/01 02:50:18;;;;;;;19.92;11.35;;;5.40;90.00;;;;;;1924642;74;21022;-54
2022/03/01 02:52:48;;;;;;;24.32;11.88;;;5.40;90.00;;;;;;1924657;74;21058;-53
2022/03/01 02:55:17;;;;;;;36.10;16.60;;;5.30;90.10;;;;;;1924690;74;21034;-54
2022/03/01 02:57:47;;;;;;;30.37;14.68;;;5.30;90.10;;;;;;1924428;74;21113;-54
2022/03/01 03:00:16;;;;;;;38.50;15.98;;;5.20;90.10;;;;;;1924674;74;21050;-53
2022/03/01 03:02:45;;;;;;;33.78;16.27;;;5.20;90.10;;;;;;1924618;74;21022;-53
2022/03/01 03:05:15;;;;;;;30.12;14.07;;;5.20;90.20;;;;;;1924680;74;21019;-54
2022/03/01 03:07:44;;;;;;;27.50;14.23;;;5.20;90.20;;;;;;1924633;74;21014;-54
2022/03/01 03:10:16;;;;;;;29.57;13.95;;;5.20;90.30;;;;;;1924687;74;21084;-55
2022/03/01 03:12:46;;;;;;;24.43;12.20;;;5.20;90.30;;;;;;1924610;74;21076;-53
2022/03/01 03:15:15;;;;;;;23.55;12.60;;;5.20;90.20;;;;;;1924478;74;21077;-53
2022/03/01 03:17:45;;;;;;;21.52;13.05;;;5.10;90.40;;;;;;1924507;74;21028;-54
2022/03/01 03:20:14;;;;;;;19.23;11.00;;;5.10;90.20;;;;;;1924539;74;21023;-52
2022/03/01 03:22:44;;;;;;;24.82;13.65;;;5.10;90.40;;;;;;1924645;74;21019;-54
2022/03/01 03:25:13;;;;;;;18.30;10.13;;;5.10;90.30;;;;;;1924491;74;21026;-53
2022/03/01 03:27:43;;;;;;;18.95;12.23;;;5.00;90.40;;;;;;1924547;74;21080;-54
2022/03/01 03:30:13;;;;;;;24.95;12.40;;;5.00;90.40;;;;;;1924656;74;21022;-54
2022/03/01 03:32:42;;;;;;;22.32;12.25;;;4.90;90.50;;;;;;1924737;74;21014;-55
2022/03/01 03:35:11;;;;;;;20.68;11.45;;;4.90;90.70;;;;;;1924658;74;21019;-54
2022/03/01 03:37:41;;;;;;;24.75;12.63;;;4.80;90.80;;;;;;1924624;74;21422;-54
2022/03/01 03:40:11;;;;;;;22.52;12.23;;;4.80;90.80;;;;;;1924598;74;20995;-54
2022/03/01 03:42:42;;;;;;;13.98;9.55;;;4.90;90.80;;;;;;1924637;74;21109;-54
2022/03/01 03:45:13;;;;;;;20.45;9.70;;;4.80;90.90;;;;;;1924707;74;21019;-54
2022/03/01 03:47:42;;;;;;;17.70;10.93;;;4.80;90.90;;;;;;1924651;74;21148;-54
2022/03/01 03:50:12;;;;;;;22.07;12.80;;;4.70;90.90;;;;;;1924831;74;21081;-53
2022/03/01 03:52:42;;;;;;;19.57;12.45;;;4.70;90.90;;;;;;1924664;74;21070;-53
2022/03/01 03:55:12;;;;;;;24.43;13.03;;;4.70;91.00;;;;;;1924558;74;21237;-54
2022/03/01 03:57:41;;;;;;;26.62;13.78;;;4.70;91.10;;;;;;1924661;74;21027;-55
2022/03/01 04:00:17;;;;;;;22.45;12.95;;;4.70;91.10;;;;;;1924721;74;21055;-54
2022/03/01 04:02:48;;;;;;;25.55;13.18;;;4.70;91.10;;;;;;1924664;74;21149;-54
2022/03/01 04:05:17;;;;;;;12.30;8.08;;;4.70;91.10;;;;;;1924689;74;21058;-54
2022/03/01 04:07:48;;;;;;;28.47;14.55;;;4.70;91.30;;;;;;1924719;74;21085;-53
2022/03/01 04:10:18;;;;;;;16.42;9.75;;;4.70;91.20;;;;;;1924790;74;21101;-54
2022/03/01 04:12:48;;;;;;;25.37;11.90;;;4.70;91.10;;;;;;1924814;74;21152;-54
2022/03/01 04:15:17;;;;;;;25.80;12.90;;;4.70;91.20;;;;;;1924743;74;21120;-55
2022/03/01 04:17:46;;;;;;;22.73;12.15;;;4.70;91.10;;;;;;1924556;74;21125;-54
2022/03/01 04:20:18;;;;;;;24.70;12.80;;;4.70;91.10;;;;;;1924766;74;21082;-55
2022/03/01 04:22:47;;;;;;;27.25;12.47;;;4.80;91.10;;;;;;1924671;74;21513;-54
2022/03/01 04:25:17;;;;;;;22.25;11.22;;;4.80;91.20;;;;;;1924645;74;21058;-54
2022/03/01 04:27:46;;;;;;;22.05;10.70;;;4.80;91.00;;;;;;1924667;74;21039;-53
2022/03/01 04:30:16;;;;;;;24.75;13.38;;;4.80;91.20;;;;;;1924575;74;21022;-53
2022/03/01 04:32:49;;;;;;;18.42;10.93;;;4.80;91.20;;;;;;1924692;74;21058;-54
2022/03/01 04:35:19;;;;;;;25.52;12.88;;;4.80;91.40;;;;;;1924810;74;21148;-53
2022/03/01 04:37:49;;;;;;;27.20;13.32;;;4.80;91.30;;;;;;1924580;74;21096;-55
2022/03/01 04:40:19;;;;;;;21.02;11.97;;;4.80;91.30;;;;;;1924594;74;20999;-54
2022/03/01 04:42:49;;;;;;;19.45;10.43;;;4.80;91.40;;;;;;1924634;74;21015;-55
2022/03/01 04:45:18;;;;;;;23.87;12.63;;;4.80;91.50;;;;;;1924560;74;21078;-56
2022/03/01 04:47:48;;;;;;;21.05;11.00;;;4.70;91.60;;;;;;1924611;74;21143;-55
2022/03/01 04:50:17;;;;;;;25.02;13.98;;;4.70;91.50;;;;;;1924675;74;21143;-55
2022/03/01 04:52:47;;;;;;;15.40;8.45;;;4.70;91.50;;;;;;1924630;74;21121;-54
2022/03/01 04:55:16;;;;;;;24.43;12.10;;;4.70;91.70;;;;;;1924633;74;21018;-55
2022/03/01 04:57:46;;;;;;;23.47;11.78;;;4.60;91.60;;;;;;1924656;74;21027;-55
2022/03/01 05:00:16;;;;;;;12.85;7.17;;;4.60;91.70;;;;;;1909394;74;21035;-55
2022/03/01 05:02:47;;;;;;;14.58;9.45;;;4.60;91.80;;;;;;1905244;75;21136;-56
2022/03/01 05:05:17;;;;;;;34.08;16.23;;;4.50;91.90;;;;;;1905311;75;21043;-55
2022/03/01 05:07:48;;;;;;;19.55;9.88;;;4.60;91.80;;;;;;1905277;75;21224;-54
2022/03/01 05:10:19;;;;;;;17.70;8.93;;;4.50;91.90;;;;;;1905364;75;21086;-55
2022/03/01 05:12:53;;;;;;;23.95;13.13;;;4.50;91.90;;;;;;1905138;75;21140;-55
2022/03/01 05:15:24;;;;;;;12.90;8.57;;;4.50;91.90;;;;;;1905657;74;21069;-55
2022/03/01 05:17:55;;;;;;;20.25;11.38;;;4.50;92.00;;;;;;1905321;75;21125;-55
2022/03/01 05:20:25;;;;;;;15.50;8.95;;;4.50;92.00;;;;;;1905231;75;21032;-56
2022/03/01 05:22:55;;;;;;;21.97;10.75;;;4.50;92.00;;;;;;1905324;75;21015;-56
2022/03/01 05:25:25;;;;;;;20.15;11.33;;;4.50;92.00;;;;;;1905210;75;21196;-55
2022/03/01 05:27:55;;;;;;;24.63;12.80;;;4.50;91.90;;;;;;1905154;75;21081;-56
2022/03/01 05:30:25;;;;;;;29.45;13.68;;;4.50;91.90;;;;;;1905242;75;21455;-55
2022/03/01 05:32:57;;;;;;;24.45;13.53;;;4.60;91.70;;;;;;1905014;75;21071;-56
2022/03/01 05:35:29;;;;;;;26.48;14.65;;;4.70;91.60;;;;;;1905141;75;21271;-55
2022/03/01 05:37:59;;;;;;;26.45;13.70;;;4.80;91.70;;;;;;1905225;75;21083;-56
2022/03/01 05:40:30;;;;;;;40.88;21.80;;;4.80;91.60;;;;;;1905138;75;21023;-56
2022/03/01 05:43:01;;;;;;;23.47;12.90;;;4.80;91.60;;;;;;1905258;75;21074;-56
2022/03/01 05:45:30;;;;;;;24.47;13.30;;;4.90;91.50;;;;;;1905249;75;21078;-56
2022/03/01 05:48:00;;;;;;;30.05;14.45;;;4.90;91.40;;;;;;1905269;75;21137;-56
2022/03/01 05:50:29;;;;;;;31.05;16.15;;;4.90;91.60;;;;;;1905262;75;21106;-55
2022/03/01 05:52:59;;;;;;;22.98;12.35;;;4.90;91.50;;;;;;1905066;75;21235;-56
2022/03/01 05:55:28;;;;;;;22.45;11.10;;;4.90;91.90;;;;;;1905121;75;21073;-56
2022/03/01 05:57:58;;;;;;;20.50;10.85;;;4.90;92.00;;;;;;1905259;75;21059;-56
2022/03/01 06:00:28;;;;;;;32.55;14.83;;;4.90;92.10;;;;;;1905155;74;21094;-55
2022/03/01 06:02:58;;;;;;;32.38;14.98;;;4.90;92.10;;;;;;1905262;75;21158;-55
2022/03/01 06:05:28;;;;;;;32.73;15.60;;;4.90;91.80;;;;;;1905214;74;21195;-55
2022/03/01 06:07:58;;;;;;;27.73;14.13;;;4.90;91.90;;;;;;1905176;75;21137;-56
2022/03/01 06:10:27;;;;;;;24.07;13.30;;;4.90;92.00;;;;;;1905391;74;21138;-56
2022/03/01 06:12:57;;;;;;;29.92;14.28;;;5.00;91.80;;;;;;1905165;75;21223;-56
2022/03/01 06:15:26;;;;;;;23.90;14.90;;;5.00;91.80;;;;;;1905197;75;21186;-56
2022/03/01 06:17:56;;;;;;;27.05;13.65;;;5.10;91.80;;;;;;1905228;75;21024;-56
2022/03/01 06:20:25;;;;;;;14.20;7.65;;;5.10;91.80;;;;;;1905220;75;21059;-56
2022/03/01 06:22:54;;;;;;;26.90;14.07;;;5.10;91.90;;;;;;1905281;74;21020;-54
2022/03/01 06:25:24;;;;;;;25.77;13.30;;;5.10;91.90;;;;;;1905197;75;21083;-56
2022/03/01 06:27:54;;;;;;;26.85;12.53;;;5.10;92.00;;;;;;1905234;75;21051;-56
2022/03/01 06:30:24;;;;;;;23.90;12.28;;;5.10;91.80;;;;;;1905158;75;21059;-55
2022/03/01 06:32:54;;;;;;;19.82;11.75;;;5.10;91.90;;;;;;1905156;75;21117;-55
2022/03/01 06:35:23;;;;;;;19.27;11.68;;;5.10;92.00;;;;;;1905133;75;21086;-55
2022/03/01 06:37:53;;;;;;;24.10;12.40;;;5.10;91.90;;;;;;1905295;74;21083;-55
2022/03/01 06:40:23;;;;;;;16.80;8.78;;;5.10;91.90;;;;;;1905239;74;21083;-55
2022/03/01 06:42:52;;;;;;;23.18;12.88;;;5.10;91.80;;;;;;1905128;75;21122;-55
2022/03/01 06:45:21;;;;;;;23.00;12.45;;;5.20;91.90;;;;;;1905194;75;21016;-56
2022/03/01 06:47:51;;;;;;;15.63;8.93;;;5.10;91.90;;;;;;1905194;74;21093;-56
2022/03/01 06:50:20;;;;;;;17.82;10.63;;;5.10;91.90;;;;;;1905189;75;21084;-55
2022/03/01 06:52:50;;;;;;;24.10;12.78;;;5.10;92.00;;;;;;1905175;75;21082;-56
2022/03/01 06:55:23;;;;;;;27.37;13.03;;;5.10;92.00;;;;;;1905220;75;21027;-56
2022/03/01 06:57:53;;;;;;;22.50;12.20;;;5.20;92.00;;;;;;1905253;75;21038;-55
2022/03/01 07:00:22;;;;;;;18.35;8.53;;;5.20;92.00;;;;;;1905110;74;21212;-55
2022/03/01 07:02:52;;;;;;;13.28;8.18;;;5.20;92.00;;;;;;1905229;75;21079;-55
2022/03/01 07:05:21;;;;;;;20.35;12.00;;;5.20;92.10;;;;;;1905223;75;21023;-55
2022/03/01 07:07:50;;;;;;;21.60;12.23;;;5.20;92.00;;;;;;1905315;75;21089;-53
2022/03/01 07:10:20;;;;;;;24.35;11.88;;;5.20;91.90;;;;;;1905250;75;21073;-55
2022/03/01 07:12:50;;;;;;;27.22;14.13;;;5.20;91.90;;;;;;1905214;75;21079;-54
2022/03/01 07:15:19;;;;;;;19.10;10.93;;;5.20;91.90;;;;;;1905308;75;21079;-54
2022/03/01 07:17:48;;;;;;;17.10;11.15;;;5.20;91.90;;;;;;1905214;74;21084;-54
2022/03/01 07:20:18;;;;;;;21.87;11.00;;;5.20;91.90;;;;;;1905222;75;21099;-55
2022/03/01 07:22:47;;;;;;;22.75;11.93;;;5.30;91.90;;;;;;1905333;75;21067;-54
2022/03/01 07:25:17;;;;;;;14.80;7.58;;;5.20;91.90;;;;;;1905258;75;21348;-55
2022/03/01 07:27:51;;;;;;;30.43;13.83;;;5.30;92.00;;;;;;1905209;75;21079;-55
2022/03/01 07:30:22;;;;;;;16.87;10.00;;;5.30;92.00;;;;;;1905393;75;21028;-55
2022/03/01 07:32:58;;;;;;;22.13;12.80;;;5.30;92.10;;;;;;1905199;75;21000;-55
2022/03/01 07:35:23;;;;;;;28.20;15.25;;;5.30;91.90;;;;;;1903167;74;21024;-54
2022/03/01 07:37:53;;;;;;;19.05;11.75;;;5.30;92.00;;;;;;1904930;75;21172;-52
2022/03/01 07:40:24;;;;;;;25.35;13.15;;;5.40;92.00;;;;;;1903523;75;21007;-54
2022/03/01 07:42:53;;;;;;;25.00;14.35;;;5.40;92.10;;;;;;1902886;74;21130;-52
2022/03/01 07:45:23;;;;;;;21.75;12.43;;;5.40;92.00;;;;;;1908270;74;21000;-53
2022/03/01 07:47:53;;;;;;;23.32;12.20;;;5.40;91.80;;;;;;1902725;74;21263;-54
2022/03/01 07:50:23;;;;;;;22.93;12.82;;;5.40;91.70;;;;;;1931815;74;21516;-51
2022/03/01 07:52:52;;;;;;;34.23;16.77;;;5.50;91.80;;;;;;1900173;74;21093;-50
2022/03/01 07:55:22;;;;;;;14.47;8.45;;;5.50;91.80;;;;;;1905520;74;21023;-47
2022/03/01 07:57:52;;;;;;;29.65;15.43;;;5.50;91.80;;;;;;1899791;75;21085;-54
2022/03/01 08:00:23;;;;;;;28.73;16.77;;;5.50;92.00;;;;;;1901707;74;21033;-51
2022/03/01 08:02:52;;;;;;;25.25;13.38;;;5.60;91.80;;;;;;1928213;73;21016;-51
2022/03/01 08:05:22;;;;;;;28.23;13.43;;;5.60;91.80;;;;;;1923868;74;21162;-51
2022/03/01 08:07:52;;;;;;;27.07;13.88;;;5.50;91.70;;;;;;1923601;74;21076;-51
2022/03/01 08:10:21;;;;;;;29.70;15.48;;;5.50;91.70;;;;;;1923672;74;21107;-52
2022/03/01 08:12:50;;;;;;;27.58;15.83;;;5.50;91.70;;;;;;1924875;73;21050;-56
2022/03/01 08:15:20;;;;;;;19.25;10.70;;;5.50;91.80;;;;;;1923638;74;21150;-55
2022/03/01 08:17:51;;;;;;;25.57;14.18;;;5.50;91.80;;;;;;1923640;74;21169;-54
2022/03/01 08:20:21;;;;;;;21.50;13.18;;;5.50;91.80;;;;;;1923581;74;21591;-53
2022/03/01 08:22:50;;;;;;;26.75;14.75;;;5.60;91.80;;;;;;1922675;74;21274;-55
2022/03/01 08:25:20;;;;;;;24.95;14.03;;;5.50;91.80;;;;;;1923666;74;21628;-55
2022/03/01 08:27:49;;;;;;;38.98;16.65;;;5.60;91.90;;;;;;1923658;74;21148;-55
2022/03/01 08:30:18;;;;;;;28.75;15.32;;;5.60;91.90;;;;;;1927343;73;21082;-54
2022/03/01 08:32:49;;;;;;;28.47;15.70;;;5.60;92.00;;;;;;1957468;73;21100;-55
2022/03/01 08:35:18;;;;;;;31.90;13.25;;;5.70;91.90;;;;;;1957805;73;21034;-52
2022/03/01 08:37:48;;;;;;;33.45;17.17;;;5.70;91.80;;;;;;1957619;73;21127;-54
2022/03/01 08:40:22;;;;;;;34.43;15.83;;;5.70;91.80;;;;;;1957777;73;21175;-52
2022/03/01 08:42:51;;;;;;;36.48;16.25;;;5.70;91.80;;;;;;1932628;73;21086;-54
2022/03/01 08:45:21;;;;;;;29.37;15.93;;;5.80;91.80;;;;;;1923207;74;21128;-51
2022/03/01 08:47:52;;;;;;;34.13;16.40;;;5.80;91.80;;;;;;1923559;74;21027;-56
2022/03/01 08:50:21;;;;;;;38.05;17.30;;;5.90;91.70;;;;;;1924018;74;21121;-54
2022/03/01 08:52:51;;;;;;;31.90;15.85;;;5.80;91.90;;;;;;1923472;74;21054;-52
2022/03/01 08:55:20;;;;;;;30.15;15.83;;;5.80;91.70;;;;;;1923658;74;21118;-48
2022/03/01 08:57:50;;;;;;;33.18;17.05;;;5.80;91.80;;;;;;1923805;74;21216;-53
2022/03/01 09:00:19;;;;;;;27.35;16.25;;;5.90;91.80;;;;;;1923711;74;21031;-53
2022/03/01 09:02:49;;;;;;;29.23;14.35;;;5.90;91.90;;;;;;1923782;74;21038;-55
2022/03/01 09:05:18;;;;;;;36.10;18.62;;;5.90;91.80;;;;;;1923649;74;21093;-54
2022/03/01 09:07:48;;;;;;;34.10;16.32;;;5.90;91.70;;;;;;1923574;73;21086;-53
2022/03/01 09:10:21;;;;;;;36.42;18.00;;;6.00;91.70;;;;;;1944642;73;21144;-51
2022/03/01 09:12:50;;;;;;;39.70;18.17;;;6.10;91.70;;;;;;1922877;74;21154;-53
2022/03/01 09:15:19;;;;;;;34.13;18.10;;;6.10;91.60;;;;;;1922671;74;21508;-52
2022/03/01 09:17:48;;;;;;;38.53;16.90;;;6.20;91.60;;;;;;1923423;74;21154;-51
2022/03/01 09:20:18;;;;;;;37.15;18.65;;;6.20;91.70;;;;;;1923450;74;21036;-53
2022/03/01 09:22:47;;;;;;;29.15;16.32;;;6.20;91.80;;;;;;1923052;74;21111;-55
2022/03/01 09:25:17;;;;;;;33.20;17.23;;;6.30;91.70;;;;;;1926949;73;21072;-54
2022/03/01 09:42:45;;;;;;;39.45;20.97;;;6.20;91.40;;;;;;1958940;72;28041;-52
2022/03/01 09:45:15;;;;;;;37.17;19.57;;;6.80;92.20;;;;;;1952597;73;21089;-53
2022/03/01 09:47:44;;;;;;;34.38;18.67;;;6.80;92.20;;;;;;1952093;73;21046;-53
2022/03/01 09:50:15;;;;;;;41.65;20.48;;;6.70;92.20;;;;;;1952340;72;21128;-55
2022/03/01 09:52:45;;;;;;;34.05;19.07;;;6.70;92.20;;;;;;1952507;72;21207;-51
2022/03/01 09:55:16;;;;;;;38.73;19.07;;;6.70;92.10;;;;;;1952353;73;21027;-52
2022/03/01 09:57:45;;;;;;;37.28;18.52;;;6.70;92.10;;;;;;1947059;73;21018;-50
2022/03/01 10:00:15;;;;;;;30.20;15.20;;;6.80;92.10;;;;;;1935712;73;21222;-48
2022/03/01 10:02:45;;;;;;;30.65;16.55;;;6.80;92.10;;;;;;1952360;73;21112;-53
2022/03/01 10:05:15;;;;;;;31.45;18.40;;;6.80;91.80;;;;;;1952622;73;21078;-54
2022/03/01 10:07:48;;;;;;;32.58;16.87;;;6.90;91.90;;;;;;1953091;73;21128;-50
2022/03/01 10:10:19;;;;;;;26.70;15.70;;;7.00;92.00;;;;;;1953210;72;21342;-49
2022/03/01 10:12:56;;;;;;;32.30;15.35;;;7.10;92.00;;;;;;1953014;73;21068;-51
2022/03/01 10:15:29;;;;;;;29.40;15.75;;;7.20;91.90;;;;;;1952993;73;21014;-53
2022/03/01 10:17:59;;;;;;;32.60;16.60;;;7.20;91.90;;;;;;1953058;73;21062;-53
2022/03/01 10:20:28;;;;;;;29.82;14.50;;;7.30;91.90;;;;;;1953074;73;21127;-53
2022/03/01 10:22:58;;;;;;;21.30;12.85;;;7.50;91.90;;;;;;1953055;73;20983;-54
2022/03/01 10:25:28;;;;;;;25.43;12.53;;;7.50;91.70;;;;;;1952947;73;21115;-55
2022/03/01 10:27:57;;;;;;;21.97;12.03;;;7.60;91.60;;;;;;1953103;73;20991;-54
2022/03/01 10:30:32;;;;;;;29.20;13.08;;;7.60;91.50;;;;;;1953064;73;21023;-50
2022/03/01 10:33:12;;;;;;;22.87;12.35;;;7.70;91.60;;;;;;1953193;73;21007;-51
2022/03/01 10:35:44;;;;;;;21.27;13.08;;;7.70;91.50;;;;;;1952921;73;21053;-51
2022/03/01 10:38:13;;;;;;;21.52;13.15;;;7.70;91.40;;;;;;1953079;72;21375;-54
2022/03/01 10:40:42;;;;;;;60.80;33.92;;;7.70;91.40;;;;;;1952806;73;21034;-52
2022/03/01 10:43:13;;;;;;;32.17;18.10;;;7.70;91.40;;;;;;1961481;72;21143;-51
2022/03/01 10:45:46;;;;;;;21.73;12.70;;;7.70;91.40;;;;;;1962209;72;21081;-53
2022/03/01 10:48:27;;;;;;;23.95;13.20;;;7.70;91.70;;;;;;1956263;73;21075;-51
2022/03/01 10:51:05;;;;;;;19.25;10.63;;;7.70;91.40;;;;;;1928029;73;21048;-54
2022/03/01 10:53:36;;;;;;;17.35;10.13;;;7.80;91.50;;;;;;1927291;73;21079;-51
2022/03/01 10:56:08;;;;;;;19.52;11.25;;;7.80;91.50;;;;;;1928190;74;21134;-49
2022/03/01 10:58:38;;;;;;;15.98;10.40;;;7.70;91.40;;;;;;1928113;73;21084;-53
2022/03/01 11:01:09;;;;;;;16.35;10.43;;;7.80;91.50;;;;;;1927959;74;21074;-49
2022/03/01 11:03:39;;;;;;;19.60;10.03;;;7.80;91.50;;;;;;1927957;73;21072;-51
2022/03/01 11:06:09;;;;;;;15.98;9.33;;;7.80;91.60;;;;;;1927966;74;21079;-52
2022/03/01 11:08:41;;;;;;;16.87;9.78;;;7.90;91.60;;;;;;1928202;73;21040;-49
2022/03/01 11:11:11;;;;;;;16.05;9.40;;;7.90;91.60;;;;;;1928010;73;21219;-47
2022/03/01 11:13:43;;;;;;;13.20;9.23;;;8.00;91.60;;;;;;1928124;73;21040;-54
2022/03/01 11:16:30;;;;;;;14.90;8.78;;;8.10;91.60;;;;;;1928180;73;21045;-51
2022/03/01 11:19:24;;;;;;;14.63;8.35;;;8.10;91.60;;;;;;1927535;74;21032;-50
2022/03/01 11:21:54;;;;;;;13.18;8.38;;;8.10;91.60;;;;;;1928213;73;21080;-49
2022/03/01 11:24:25;;;;;;;17.10;10.48;;;8.20;91.60;;;;;;1928113;73;21238;-51
2022/03/01 11:26:55;;;;;;;15.93;9.55;;;8.20;91.60;;;;;;1928136;73;21052;-48
2022/03/01 11:29:25;;;;;;;17.00;9.35;;;8.20;91.60;;;;;;1926229;73;21139;-51
2022/03/01 11:32:00;;;;;;;15.30;9.38;;;8.20;91.60;;;;;;1927976;73;21273;-51
2022/03/01 11:34:30;;;;;;;15.93;9.90;;;8.30;91.60;;;;;;1928274;74;21140;-51
2022/03/01 11:37:00;;;;;;;15.15;9.05;;;8.30;91.60;;;;;;1928013;73;21080;-51
2022/03/01 11:39:31;;;;;;;16.25;9.65;;;8.30;91.60;;;;;;1928146;73;21085;-52
2022/03/01 11:42:07;;;;;;;13.90;9.55;;;8.30;91.60;;;;;;1928100;74;21029;-52
2022/03/01 11:44:40;;;;;;;13.85;8.45;;;8.30;91.70;;;;;;1928078;74;21211;-48
2022/03/01 11:47:13;;;;;;;15.48;9.25;;;8.40;91.70;;;;;;1928201;73;21013;-52
2022/03/01 11:49:42;;;;;;;17.05;8.73;;;8.40;91.70;;;;;;1928145;73;21613;-50
2022/03/01 11:52:20;;;;;;;13.38;8.90;;;8.40;91.80;;;;;;1927865;73;21094;-52
2022/03/01 11:54:52;;;;;;;12.37;8.08;;;8.40;91.80;;;;;;1927910;73;21103;-52
2022/03/01 11:57:25;;;;;;;11.20;7.22;;;8.40;91.80;;;;;;1928142;73;21052;-51
2022/03/01 11:59:57;;;;;;;9.50;6.22;;;8.50;91.80;;;;;;1928111;73;21080;-51
2022/03/01 12:02:29;;;;;;;8.80;5.92;;;8.50;91.80;;;;;;1928031;73;21028;-51
2022/03/01 12:04:59;;;;;;;12.58;5.92;;;8.60;91.80;;;;;;1928149;74;21094;-52
2022/03/01 12:07:32;;;;;;;9.60;6.22;;;8.60;91.70;;;;;;1928060;73;21231;-47
2022/03/01 12:10:03;;;;;;;12.20;5.78;;;8.60;91.80;;;;;;1928163;73;21099;-52
2022/03/01 12:12:38;;;;;;;10.20;6.58;;;8.70;91.80;;;;;;1928141;73;21467;-51
2022/03/01 12:15:08;;;;;;;12.85;6.85;;;8.70;91.70;;;;;;1927344;73;21029;-51
2022/03/01 12:17:49;;;;;;;10.53;5.97;;;8.70;91.70;;;;;;1928941;73;21020;-51
2022/03/01 12:20:21;;;;;;;8.83;6.20;;;8.80;91.70;;;;;;1928893;74;21094;-52
2022/03/01 12:23:06;;;;;;;9.00;6.12;;;8.80;91.70;;;;;;1928896;74;21001;-50
2022/03/01 12:25:37;;;;;;;8.43;5.80;;;8.80;91.60;;;;;;1927187;74;21115;-51
2022/03/01 12:28:11;;;;;;;8.45;5.25;;;8.80;91.70;;;;;;1929278;74;21024;-51
2022/03/01 12:30:44;;;;;;;6.70;4.42;;;8.90;91.60;;;;;;1928987;73;21005;-52
2022/03/01 12:33:16;;;;;;;6.07;4.23;;;9.00;91.60;;;;;;1929137;74;21029;-50
2022/03/01 12:35:47;;;;;;;6.28;4.15;;;9.00;91.60;;;;;;1928844;73;21021;-50
2022/03/01 12:38:16;;;;;;;10.08;5.45;;;9.10;91.60;;;;;;1927038;73;21464;-52
2022/03/01 12:40:45;;;;;;;5.25;2.83;;;9.20;91.60;;;;;;1928763;73;21090;-51
2022/03/01 12:43:16;;;;;;;8.78;4.35;;;9.20;91.20;;;;;;1928750;73;21045;-50
2022/03/01 12:45:47;;;;;;;5.42;3.77;;;9.20;91.10;;;;;;1928644;74;21056;-53
2022/03/01 12:48:18;;;;;;;3.85;2.58;;;9.30;91.20;;;;;;1928647;73;21009;-53
2022/03/01 12:50:52;;;;;;;4.20;3.10;;;9.40;91.00;;;;;;1928867;73;21083;-52
2022/03/01 12:53:22;;;;;;;3.72;2.45;;;9.40;91.00;;;;;;1928894;74;21012;-53
2022/03/01 12:55:55;;;;;;;3.67;3.12;;;9.40;90.90;;;;;;1928758;73;21024;-52
2022/03/01 12:58:29;;;;;;;5.22;2.83;;;9.40;90.90;;;;;;1928770;73;21463;-53
2022/03/01 13:01:07;;;;;;;3.75;2.90;;;9.40;90.80;;;;;;1928735;73;21475;-53
2022/03/01 13:03:36;;;;;;;5.33;3.35;;;9.40;90.50;;;;;;1928763;74;21028;-52
2022/03/01 13:06:08;;;;;;;17.92;9.33;;;9.40;90.40;;;;;;1928791;74;21029;-53
2022/03/01 13:08:39;;;;;;;5.80;4.20;;;9.40;90.50;;;;;;1928793;73;21104;-51
2022/03/01 13:11:09;;;;;;;12.00;7.75;;;9.40;90.70;;;;;;1928642;73;21021;-51